Johann Jacob — A8XD7 — position and weather

sailwx.info

Track history (hours):
 
Tides and Currents Weather Stations Pressure Air Temp Water Temp Dewpoint Dewpoint Depression Visibility Wind Speed Wind Dir Waves Ship Positions

Johann Jacob

Last reported at 2017-Nov-17 12:08 UTC. Time now 2017-Nov-24 07:32 UTC.
Position N 37°35' E 015°53'.

Length 227 m; draft 9 m.

Type: Tanker. MMSI: 636092124.

Date/timePositionNaut miles runAvg speedWind from/ knotsBaromVisibWave heightAir tempDewpointWater temp
2017-Nov-17 12:08N 37°35' E 015°53'22 0.7
2017-Nov-16 05:54N 37°14' E 015°45'  
2017-Nov-12 16:20N 35°57' E 014°51'0 0.0
2017-Nov-12 14:49N 35°57' E 014°51'0 0.0
2017-Nov-12 13:27N 35°57' E 014°51'0 0.0
2017-Nov-12 08:58N 35°57' E 014°51'0 0.0
2017-Nov-12 05:57N 35°56' E 014°51'0 0.0
2017-Nov-12 03:08N 35°57' E 014°51'0 0.0
2017-Nov-12 01:31N 35°57' E 014°51'0 0.4
2017-Nov-12 01:25N 35°57' E 014°51'0 0.1
2017-Nov-12 00:58N 35°57' E 014°51'0 0.1
2017-Nov-12 00:28N 35°57' E 014°51'0 0.0
2017-Nov-12 00:01N 35°57' E 014°51'0 0.0
2017-Nov-11 23:27N 35°57' E 014°51'0 0.0
2017-Nov-11 23:00N 35°57' E 014°51'0 0.0
2017-Nov-11 22:24N 35°57' E 014°51'0 0.0
2017-Nov-11 22:00N 35°57' E 014°51'0 0.0
2017-Nov-11 21:23N 35°57' E 014°51'0 0.0
2017-Nov-11 20:59N 35°57' E 014°51'0 0.0
2017-Nov-11 20:29N 35°57' E 014°51'0 0.0
2017-Nov-11 16:24N 35°56' E 014°51'1 2.7
2017-Nov-11 16:00N 35°56' E 014°49'4 7.4
2017-Nov-11 15:30N 35°57' E 014°45'612.7
2017-Nov-11 15:00N 35°56' E 014°37'4 8.7
2017-Nov-11 14:29N 35°57' E 014°32'1 1.2
2017-Nov-11 14:00N 35°57' E 014°32'0 0.5
2017-Nov-11 13:30N 35°58' E 014°32'1 1.1
2017-Nov-11 13:00N 35°57' E 014°32'1 1.2
2017-Nov-11 12:30N 35°57' E 014°32'1 1.5
2017-Nov-11 12:00N 35°57' E 014°33'1 1.9
2017-Nov-11 11:30N 35°58' E 014°34'2 3.8
2017-Nov-11 11:00N 35°57' E 014°36'612.6
2017-Nov-11 10:30N 35°57' E 014°44'611.3
2017-Nov-11 10:00N 35°57' E 014°51'0 0.6
2017-Nov-11 09:26N 35°56' E 014°51'0 0.1
2017-Nov-11 06:50N 35°56' E 014°51'0 0.4
2017-Nov-11 06:25N 35°57' E 014°51'0 0.1
2017-Nov-11 06:00N 35°57' E 014°51'0 0.1
2017-Nov-11 05:30N 35°57' E 014°51'0 0.1
2017-Nov-11 05:00N 35°57' E 014°51'0 0.0
2017-Nov-11 04:30N 35°57' E 014°51'0 0.0
2017-Nov-11 03:59N 35°57' E 014°51'0 0.1
2017-Nov-11 03:29N 35°57' E 014°51'0 0.0
2017-Nov-11 02:59N 35°57' E 014°51'0 0.1
2017-Nov-11 02:30N 35°57' E 014°51'0 0.1
2017-Nov-11 01:57N 35°57' E 014°51'0 0.0
2017-Nov-11 01:30N 35°57' E 014°51'0 0.1
2017-Nov-11 00:59N 35°57' E 014°51'0 0.0
2017-Nov-11 00:30N 35°57' E 014°51'0 0.0
2017-Nov-11 00:00N 35°57' E 014°51'0 0.0
2017-Nov-10 23:26N 35°57' E 014°51'0 0.0
2017-Nov-10 23:00N 35°57' E 014°51'0 0.1
2017-Nov-10 22:30N 35°57' E 014°51'0 0.1
2017-Nov-10 21:52N 35°57' E 014°51'0 0.0
2017-Nov-10 21:24N 35°57' E 014°51'0 0.1
2017-Nov-10 20:59N 35°57' E 014°51'0 0.0
2017-Nov-10 20:22N 35°57' E 014°51'0 0.0
2017-Nov-10 20:00N 35°57' E 014°51'0 0.0
2017-Nov-10 18:32N 35°57' E 014°51'0 0.7
2017-Nov-10 18:29N 35°57' E 014°51'0 0.0
2017-Nov-10 18:00N 35°57' E 014°51'0 0.1
2017-Nov-10 17:24N 35°57' E 014°51'0 0.1
2017-Nov-10 17:00N 35°57' E 014°51'0 0.1
2017-Nov-10 16:30N 35°57' E 014°51'0 0.0
2017-Nov-10 16:00N 35°57' E 014°51'0 0.0
2017-Nov-10 15:30N 35°57' E 014°51'0 0.2
2017-Nov-10 14:59N 35°57' E 014°51'0 0.0
2017-Nov-10 14:30N 35°57' E 014°51'0 0.0
2017-Nov-10 14:00N 35°57' E 014°51'0 0.1
2017-Nov-10 13:30N 35°57' E 014°51'0 0.4
2017-Nov-10 13:00N 35°56' E 014°51'0 0.3
2017-Nov-10 12:30N 35°56' E 014°51'0 0.3
2017-Nov-10 12:00N 35°56' E 014°51'0 0.6
2017-Nov-10 11:29N 35°57' E 014°51'0 0.0
2017-Nov-10 10:59N 35°57' E 014°51'0 0.0
2017-Nov-10 10:24N 35°57' E 014°51'0 0.0
2017-Nov-10 10:00N 35°57' E 014°51'0 0.0
2017-Nov-10 09:30N 35°57' E 014°51'0 0.0
2017-Nov-10 09:00N 35°57' E 014°51'0 0.1
2017-Nov-10 08:30N 35°57' E 014°51'0 0.0
2017-Nov-10 08:00N 35°57' E 014°51'0 0.0
2017-Nov-10 07:30N 35°57' E 014°51'0 0.0
2017-Nov-10 06:58N 35°57' E 014°51'0 0.0
2017-Nov-10 06:30N 35°57' E 014°51'0 0.0
2017-Nov-10 06:00N 35°57' E 014°51'0 0.0
2017-Nov-10 05:30N 35°57' E 014°51'0 0.0
2017-Nov-10 05:00N 35°57' E 014°51'0 0.0
2017-Nov-10 04:29N 35°57' E 014°51'0 0.0
2017-Nov-10 04:00N 35°57' E 014°51'0 0.0
2017-Nov-10 03:30N 35°57' E 014°51'0 0.0
2017-Nov-10 02:59N 35°57' E 014°51'0 0.0
2017-Nov-10 02:29N 35°57' E 014°51'0 0.1
2017-Nov-10 01:59N 35°57' E 014°51'0 0.1
2017-Nov-10 01:25N 35°57' E 014°51'0 0.0
2017-Nov-10 00:58N 35°57' E 014°51'0 0.0
2017-Nov-10 00:29N 35°57' E 014°51'0 0.1
2017-Nov-09 23:59N 35°57' E 014°51'0 0.1
2017-Nov-09 23:30N 35°57' E 014°51'0 0.1
2017-Nov-09 22:55N 35°57' E 014°51'0 0.1
2017-Nov-09 22:29N 35°57' E 014°51'0 0.0
2017-Nov-09 21:57N 35°57' E 014°51'0 0.0
2017-Nov-09 21:30N 35°57' E 014°51'0 0.0
2017-Nov-09 20:59N 35°57' E 014°51'0 0.0
2017-Nov-09 20:29N 35°57' E 014°51'0 0.3
2017-Nov-09 19:50N 35°56' E 014°51'45811.2
2017-Nov-08 03:05N 37°34' E 024°09'213.3
2017-Nov-08 02:56N 37°36' E 024°11'913.1
2017-Nov-08 02:14N 37°43' E 024°17'15013.2
2017-Nov-07 14:51N 39°55' E 025°48'  
Track history (hours):
 
Tides and Currents Weather Stations Pressure Air Temp Water Temp Dewpoint Dewpoint Depression Visibility Wind Speed Wind Dir Waves Ship Positions

Johann Jacob

Last reported at 2017-Nov-17 12:08 UTC. Time now 2017-Nov-24 07:32 UTC.
Position N 37°35' E 015°53'.

Length 227 m; draft 9 m.

Type: Tanker. MMSI: 636092124.

Date/timePositionNaut miles runAvg speedWind from/ knotsBaromVisibWave heightAir tempDewpointWater temp
2017-Nov-17 12:08N 37°35' E 015°53'22 0.7
2017-Nov-16 05:54N 37°14' E 015°45'  
2017-Nov-12 16:20N 35°57' E 014°51'0 0.0
2017-Nov-12 14:49N 35°57' E 014°51'0 0.0
2017-Nov-12 13:27N 35°57' E 014°51'0 0.0
2017-Nov-12 08:58N 35°57' E 014°51'0 0.0
2017-Nov-12 05:57N 35°56' E 014°51'0 0.0
2017-Nov-12 03:08N 35°57' E 014°51'0 0.0
2017-Nov-12 01:31N 35°57' E 014°51'0 0.4
2017-Nov-12 01:25N 35°57' E 014°51'0 0.1
2017-Nov-12 00:58N 35°57' E 014°51'0 0.1
2017-Nov-12 00:28N 35°57' E 014°51'0 0.0
2017-Nov-12 00:01N 35°57' E 014°51'0 0.0
2017-Nov-11 23:27N 35°57' E 014°51'0 0.0
2017-Nov-11 23:00N 35°57' E 014°51'0 0.0
2017-Nov-11 22:24N 35°57' E 014°51'0 0.0
2017-Nov-11 22:00N 35°57' E 014°51'0 0.0
2017-Nov-11 21:23N 35°57' E 014°51'0 0.0
2017-Nov-11 20:59N 35°57' E 014°51'0 0.0
2017-Nov-11 20:29N 35°57' E 014°51'0 0.0
2017-Nov-11 16:24N 35°56' E 014°51'1 2.7
2017-Nov-11 16:00N 35°56' E 014°49'4 7.4
2017-Nov-11 15:30N 35°57' E 014°45'612.7
2017-Nov-11 15:00N 35°56' E 014°37'4 8.7
2017-Nov-11 14:29N 35°57' E 014°32'1 1.2
2017-Nov-11 14:00N 35°57' E 014°32'0 0.5
2017-Nov-11 13:30N 35°58' E 014°32'1 1.1
2017-Nov-11 13:00N 35°57' E 014°32'1 1.2
2017-Nov-11 12:30N 35°57' E 014°32'1 1.5
2017-Nov-11 12:00N 35°57' E 014°33'1 1.9
2017-Nov-11 11:30N 35°58' E 014°34'2 3.8
2017-Nov-11 11:00N 35°57' E 014°36'612.6
2017-Nov-11 10:30N 35°57' E 014°44'611.3
2017-Nov-11 10:00N 35°57' E 014°51'0 0.6
2017-Nov-11 09:26N 35°56' E 014°51'0 0.1
2017-Nov-11 06:50N 35°56' E 014°51'0 0.4
2017-Nov-11 06:25N 35°57' E 014°51'0 0.1
2017-Nov-11 06:00N 35°57' E 014°51'0 0.1
2017-Nov-11 05:30N 35°57' E 014°51'0 0.1
2017-Nov-11 05:00N 35°57' E 014°51'0 0.0
2017-Nov-11 04:30N 35°57' E 014°51'0 0.0
2017-Nov-11 03:59N 35°57' E 014°51'0 0.1
2017-Nov-11 03:29N 35°57' E 014°51'0 0.0
2017-Nov-11 02:59N 35°57' E 014°51'0 0.1
2017-Nov-11 02:30N 35°57' E 014°51'0 0.1
2017-Nov-11 01:57N 35°57' E 014°51'0 0.0
2017-Nov-11 01:30N 35°57' E 014°51'0 0.1
2017-Nov-11 00:59N 35°57' E 014°51'0 0.0
2017-Nov-11 00:30N 35°57' E 014°51'0 0.0
2017-Nov-11 00:00N 35°57' E 014°51'0 0.0
2017-Nov-10 23:26N 35°57' E 014°51'0 0.0
2017-Nov-10 23:00N 35°57' E 014°51'0 0.1
2017-Nov-10 22:30N 35°57' E 014°51'0 0.1
2017-Nov-10 21:52N 35°57' E 014°51'0 0.0
2017-Nov-10 21:24N 35°57' E 014°51'0 0.1
2017-Nov-10 20:59N 35°57' E 014°51'0 0.0
2017-Nov-10 20:22N 35°57' E 014°51'0 0.0
2017-Nov-10 20:00N 35°57' E 014°51'0 0.0
2017-Nov-10 18:32N 35°57' E 014°51'0 0.7
2017-Nov-10 18:29N 35°57' E 014°51'0 0.0
2017-Nov-10 18:00N 35°57' E 014°51'0 0.1
2017-Nov-10 17:24N 35°57' E 014°51'0 0.1
2017-Nov-10 17:00N 35°57' E 014°51'0 0.1
2017-Nov-10 16:30N 35°57' E 014°51'0 0.0
2017-Nov-10 16:00N 35°57' E 014°51'0 0.0
2017-Nov-10 15:30N 35°57' E 014°51'0 0.2
2017-Nov-10 14:59N 35°57' E 014°51'0 0.0
2017-Nov-10 14:30N 35°57' E 014°51'0 0.0
2017-Nov-10 14:00N 35°57' E 014°51'0 0.1
2017-Nov-10 13:30N 35°57' E 014°51'0 0.4
2017-Nov-10 13:00N 35°56' E 014°51'0 0.3
2017-Nov-10 12:30N 35°56' E 014°51'0 0.3
2017-Nov-10 12:00N 35°56' E 014°51'0 0.6
2017-Nov-10 11:29N 35°57' E 014°51'0 0.0
2017-Nov-10 10:59N 35°57' E 014°51'0 0.0
2017-Nov-10 10:24N 35°57' E 014°51'0 0.0
2017-Nov-10 10:00N 35°57' E 014°51'0 0.0
2017-Nov-10 09:30N 35°57' E 014°51'0 0.0
2017-Nov-10 09:00N 35°57' E 014°51'0 0.1
2017-Nov-10 08:30N 35°57' E 014°51'0 0.0
2017-Nov-10 08:00N 35°57' E 014°51'0 0.0
2017-Nov-10 07:30N 35°57' E 014°51'0 0.0
2017-Nov-10 06:58N 35°57' E 014°51'0 0.0
2017-Nov-10 06:30N 35°57' E 014°51'0 0.0
2017-Nov-10 06:00N 35°57' E 014°51'0 0.0
2017-Nov-10 05:30N 35°57' E 014°51'0 0.0
2017-Nov-10 05:00N 35°57' E 014°51'0 0.0
2017-Nov-10 04:29N 35°57' E 014°51'0 0.0
2017-Nov-10 04:00N 35°57' E 014°51'0 0.0
2017-Nov-10 03:30N 35°57' E 014°51'0 0.0
2017-Nov-10 02:59N 35°57' E 014°51'0 0.0
2017-Nov-10 02:29N 35°57' E 014°51'0 0.1
2017-Nov-10 01:59N 35°57' E 014°51'0 0.1
2017-Nov-10 01:25N 35°57' E 014°51'0 0.0
2017-Nov-10 00:58N 35°57' E 014°51'0 0.0
2017-Nov-10 00:29N 35°57' E 014°51'0 0.1
2017-Nov-09 23:59N 35°57' E 014°51'0 0.1
2017-Nov-09 23:30N 35°57' E 014°51'0 0.1
2017-Nov-09 22:55N 35°57' E 014°51'0 0.1
2017-Nov-09 22:29N 35°57' E 014°51'0 0.0
2017-Nov-09 21:57N 35°57' E 014°51'0 0.0
2017-Nov-09 21:30N 35°57' E 014°51'0 0.0
2017-Nov-09 20:59N 35°57' E 014°51'0 0.0
2017-Nov-09 20:29N 35°57' E 014°51'0 0.3
2017-Nov-09 19:50N 35°56' E 014°51'45811.2
2017-Nov-08 03:05N 37°34' E 024°09'213.3
2017-Nov-08 02:56N 37°36' E 024°11'913.1
2017-Nov-08 02:14N 37°43' E 024°17'15013.2
2017-Nov-07 14:51N 39°55' E 025°48'  

Dump ship's entire track history